Time;durP1;ratioP1;P1;durP2;ratioP2;P2;SDS_P1;SDS_P2;PMS_P1;PMS_P2;Temp;Humidity;BMP_temperature;BMP_pressure;BME280_temperature;BME280_humidity;BME280_pressure;Samples;Min_cycle;Max_cycle;Signal;HPM_P1;HPM_P2
2023/10/05 00:01:03;;;;;;;5.95;1.95;;;;;;;13.17;100.00;102285.81;6279582;22;20020;-86
2023/10/05 00:03:30;;;;;;;10.13;2.20;;;;;;;13.20;100.00;102285.69;6279106;22;20018;-87
2023/10/05 00:06:13;;;;;;;6.28;1.88;;;;;;;13.22;100.00;102283.38;6279571;22;20331;-87
2023/10/05 00:08:44;;;;;;;9.23;2.10;;;;;;;13.23;100.00;102289.47;6280293;22;20016;-86
2023/10/05 00:11:22;;;;;;;5.38;1.70;;;;;;;13.25;100.00;102292.47;6281049;22;20012;-87
2023/10/05 00:13:54;;;;;;;7.53;1.88;;;;;;;13.27;100.00;102292.81;6279524;22;20021;-87
2023/10/05 00:16:21;;;;;;;6.25;1.92;;;;;;;13.27;100.00;102298.16;6278875;22;20024;-87
2023/10/05 00:18:49;;;;;;;7.55;1.77;;;;;;;13.28;100.00;102296.97;6281385;22;20061;-87
2023/10/05 00:21:19;;;;;;;6.32;1.77;;;;;;;13.28;100.00;102291.63;6280670;22;20016;-88
2023/10/05 00:23:56;;;;;;;6.88;1.92;;;;;;;13.29;100.00;102295.81;6280521;22;20023;-87
2023/10/05 00:26:28;;;;;;;5.70;1.92;;;;;;;13.29;100.00;102293.13;6283285;22;20020;-87
2023/10/05 00:29:07;;;;;;;7.40;1.85;;;;;;;13.30;100.00;102298.06;6283562;22;20099;-88
2023/10/05 00:31:38;;;;;;;9.20;1.73;;;;;;;13.31;100.00;102298.81;6282859;22;20450;-87
2023/10/05 00:36:50;;;;;;;6.50;1.70;;;;;;;13.32;100.00;102295.72;6281439;22;20067;-86
2023/10/05 00:39:20;;;;;;;9.15;2.10;;;;;;;13.32;100.00;102289.63;6280909;22;20048;-86
2023/10/05 00:44:30;;;;;;;9.52;1.83;;;;;;;13.33;100.00;102291.13;6279268;22;20020;-87
2023/10/05 00:47:00;;;;;;;6.93;2.00;;;;;;;13.33;100.00;102288.44;6281524;22;20016;-88
2023/10/05 00:49:29;;;;;;;7.50;1.80;;;;;;;13.33;100.00;102291.13;6278998;22;20016;-88
2023/10/05 00:54:31;;;;;;;7.95;2.58;;;;;;;13.33;100.00;102288.44;6280596;22;20046;-87
2023/10/05 00:57:02;;;;;;;6.15;1.80;;;;;;;13.33;100.00;102281.19;6279452;22;20094;-87
2023/10/05 00:59:31;;;;;;;13.27;1.67;;;;;;;13.34;100.00;102289.97;6280536;22;20019;-87
2023/10/05 01:04:34;;;;;;;9.95;1.80;;;;;;;13.33;100.00;102280.44;6278639;22;20504;-87
2023/10/05 01:07:18;;;;;;;10.32;1.85;;;;;;;13.33;100.00;102275.84;6280538;22;20074;-87
2023/10/05 01:09:55;;;;;;;4.20;2.00;;;;;;;13.34;100.00;102277.34;6281147;22;20024;-88
2023/10/05 01:14:59;;;;;;;9.35;2.05;;;;;;;13.35;100.00;102270.81;6279648;22;20047;-87
2023/10/05 01:17:27;;;;;;;6.83;1.80;;;;;;;13.37;100.00;102269.66;6278802;22;20021;-88
2023/10/05 01:19:59;;;;;;;3.65;1.48;;;;;;;13.38;100.00;102268.47;6279090;22;20012;-87
2023/10/05 01:22:32;;;;;;;10.05;2.05;;;;;;;13.38;100.00;102261.19;6278679;22;20031;-86
2023/10/05 01:25:02;;;;;;;7.57;1.73;;;;;;;13.39;100.00;102261.94;6279658;22;20016;-87
2023/10/05 01:27:32;;;;;;;4.57;1.58;;;;;;;13.38;100.00;102266.53;6278537;22;20071;-88
2023/10/05 01:29:59;;;;;;;6.47;2.25;;;;;;;13.38;100.00;102263.88;6279015;22;20024;-87
2023/10/05 01:32:27;;;;;;;6.47;1.80;;;;;;;13.38;100.00;102258.53;6278923;22;20454;-86
2023/10/05 01:34:53;;;;;;;4.85;1.33;;;;;;;13.40;100.00;102266.88;6280525;22;20012;-86
2023/10/05 01:37:26;;;;;;;7.45;1.80;;;;;;;13.41;100.00;102265.69;6252855;22;20024;-87
2023/10/05 01:39:52;;;;;;;5.82;1.95;;;;;;;13.43;100.00;102274.06;6279453;22;20020;-86
2023/10/05 01:42:19;;;;;;;8.20;1.90;;;;;;;13.44;100.00;102272.13;6280368;22;20071;-86
2023/10/05 01:44:49;;;;;;;5.28;1.90;;;;;;;13.44;100.00;102275.56;6281076;22;20016;-86
2023/10/05 01:47:17;;;;;;;6.28;1.80;;;;;;;13.44;100.00;102267.53;6278450;22;20784;-87
2023/10/05 01:49:45;;;;;;;6.45;1.67;;;;;;;13.44;100.00;102269.47;6252562;22;20016;-86
2023/10/05 01:52:16;;;;;;;9.50;1.60;;;;;;;13.44;100.00;102261.44;6280472;22;20043;-86
2023/10/05 01:54:44;;;;;;;9.05;2.47;;;;;;;13.43;100.00;102265.28;6280114;22;20016;-86
2023/10/05 01:57:16;;;;;;;9.30;1.70;;;;;;;13.42;100.00;102258.44;6279616;22;20020;-85
2023/10/05 01:59:43;;;;;;;6.20;1.83;;;;;;;13.41;100.00;102265.69;6279995;22;20021;-86
2023/10/05 02:02:10;;;;;;;6.78;1.80;;;;;;;13.41;100.00;102268.38;6279664;22;20012;-86
2023/10/05 02:04:43;;;;;;;10.50;2.15;;;;;;;13.38;100.00;102271.91;6279140;22;20022;-87
2023/10/05 02:07:11;;;;;;;2.78;1.67;;;;;;;13.39;100.00;102275.31;6279964;22;20051;-87
2023/10/05 02:09:38;;;;;;;8.02;2.28;;;;;;;13.37;100.00;102273.06;6254022;22;20020;-86
2023/10/05 02:12:06;;;;;;;4.80;2.10;;;;;;;13.35;100.00;102276.16;6281843;22;20013;-86
2023/10/05 02:14:37;;;;;;;6.25;1.80;;;;;;;13.35;100.00;102270.06;6279447;22;20016;-86
2023/10/05 02:17:06;;;;;;;4.75;2.20;;;;;;;13.33;100.00;102265.13;6254759;22;20450;-85
2023/10/05 02:19:36;;;;;;;7.10;1.83;;;;;;;13.33;100.00;102259.03;6280951;22;20016;-84
2023/10/05 02:22:10;;;;;;;5.90;1.83;;;;;;;13.31;100.00;102261.38;6279791;22;20454;-85
2023/10/05 02:24:40;;;;;;;7.95;1.98;;;;;;;13.30;100.00;102267.91;6281535;22;20465;-85
2023/10/05 02:27:14;;;;;;;4.20;1.90;;;;;;;13.29;100.00;102255.69;6279049;22;20031;-85
2023/10/05 02:29:42;;;;;;;6.90;2.20;;;;;;;13.27;100.00;102253.44;6279919;22;20860;-85
2023/10/05 02:32:11;;;;;;;6.05;2.30;;;;;;;13.27;100.00;102258.78;6280949;22;20021;-86
2023/10/05 02:37:06;;;;;;;5.40;1.98;;;;;;;13.27;100.00;102252.69;6281647;22;20020;-86
2023/10/05 02:39:36;;;;;;;7.97;2.35;;;;;;;13.25;100.00;102244.34;6279586;22;20016;-86
2023/10/05 02:42:06;;;;;;;5.07;1.98;;;;;;;13.24;100.00;102248.19;6279942;22;20038;-85
2023/10/05 02:44:35;;;;;;;7.07;2.63;;;;;;;13.22;100.00;102251.28;6281058;22;20476;-85
2023/10/05 02:47:08;;;;;;;3.75;1.85;;;;;;;13.21;100.00;102249.03;6279058;22;20031;-87
2023/10/05 02:49:40;;;;;;;5.95;1.70;;;;;;;13.19;100.00;102248.72;6279655;22;20016;-86
2023/10/05 02:52:07;;;;;;;5.95;1.83;;;;;;;13.17;100.00;102249.13;6280177;22;20018;-85
2023/10/05 02:54:36;;;;;;;7.80;2.35;;;;;;;13.17;100.00;102251.06;6281499;22;20073;-86
2023/10/05 02:57:05;;;;;;;7.32;1.88;;;;;;;13.15;100.00;102251.44;6280087;22;20023;-85
2023/10/05 02:59:34;;;;;;;5.43;1.85;;;;;;;13.15;100.00;102245.34;6279364;22;20016;-85
2023/10/05 03:02:06;;;;;;;11.95;1.95;;;;;;;13.14;100.00;102255.28;6279284;22;20042;-85
2023/10/05 03:07:25;;;;;;;6.22;2.00;;;;;;;13.12;100.00;102240.84;6279254;22;20024;-85
2023/10/05 03:09:59;;;;;;;5.32;2.30;;;;;;;13.12;100.00;102254.22;6279828;22;20016;-85
2023/10/05 03:12:28;;;;;;;8.90;2.22;;;;;;;13.09;100.00;102252.38;6279033;22;20048;-84
2023/10/05 03:15:04;;;;;;;11.90;2.42;;;;;;;13.07;100.00;102257.38;6279255;22;20023;-85
2023/10/05 03:17:33;;;;;;;8.70;2.00;;;;;;;13.04;100.00;102250.97;6278732;22;20115;-85
2023/10/05 03:20:00;;;;;;;4.90;1.80;;;;;;;13.02;100.00;102253.28;6254109;22;20021;-86
2023/10/05 03:22:26;;;;;;;4.78;1.95;;;;;;;13.00;100.00;102256.38;6253127;22;20020;-85
2023/10/05 03:24:57;;;;;;;9.05;1.90;;;;;;;12.99;100.00;102249.53;6279898;22;20044;-85
2023/10/05 03:27:25;;;;;;;7.80;1.88;;;;;;;13.00;100.00;102252.97;6278598;22;20044;-85
2023/10/05 03:29:57;;;;;;;7.13;2.25;;;;;;;12.98;100.00;102247.28;6278950;22;20106;-85
2023/10/05 03:32:28;;;;;;;4.32;1.90;;;;;;;12.97;100.00;102251.13;6279020;22;20020;-85
2023/10/05 03:34:56;;;;;;;4.03;2.33;;;;;;;12.96;100.00;102253.03;6279661;22;20024;-85
2023/10/05 03:37:24;;;;;;;3.58;1.90;;;;;;;12.93;100.00;102243.19;6278749;22;20369;-86
2023/10/05 03:42:29;;;;;;;5.25;2.20;;;;;;;12.90;100.00;102252.03;6280575;22;20023;-86
2023/10/05 03:45:11;;;;;;;3.58;1.92;;;;;;;12.89;100.00;102250.53;6280617;22;20042;-86
2023/10/05 03:47:38;;;;;;;;;;;;;;;12.88;100.00;102249.03;6279607;22;20020;-86
2023/10/05 03:50:08;;;;;;;6.57;2.20;;;;;;;12.85;100.00;102247.19;6253888;22;19924;-86
2023/10/05 03:52:36;;;;;;;5.95;1.98;;;;;;;12.83;100.00;102254.13;6278663;22;20098;-85
2023/10/05 03:55:04;;;;;;;6.47;2.38;;;;;;;12.81;100.00;102254.53;6279283;22;20074;-85
2023/10/05 03:57:31;;;;;;;5.93;2.13;;;;;;;12.80;100.00;102255.72;6278581;22;20366;-86
2023/10/05 03:59:59;;;;;;;4.22;2.15;;;;;;;12.77;100.00;102251.22;6278468;22;20019;-85
2023/10/05 04:02:37;;;;;;;5.20;2.40;;;;;;;12.75;100.00;102248.22;6279355;22;20454;-85
2023/10/05 04:05:09;;;;;;;9.70;2.47;;;;;;;12.75;100.00;102252.81;6279595;22;20079;-86
2023/10/05 04:07:36;;;;;;;6.00;2.20;;;;;;;12.73;100.00;102253.22;6280980;22;20068;-87
2023/10/05 04:10:03;;;;;;;5.57;2.22;;;;;;;12.73;100.00;102257.81;6282815;22;20020;-85
2023/10/05 04:12:32;;;;;;;9.73;2.55;;;;;;;12.73;100.00;102263.16;6253045;22;20535;-85
2023/10/05 04:15:05;;;;;;;6.50;2.20;;;;;;;12.70;100.00;102262.06;6280445;22;20016;-86
2023/10/05 04:17:32;;;;;;;11.55;2.22;;;;;;;12.68;100.00;102256.41;6279160;22;20017;-86
2023/10/05 04:19:58;;;;;;;7.82;2.25;;;;;;;12.66;100.00;102258.72;6280987;22;20472;-85
2023/10/05 04:22:25;;;;;;;8.85;2.45;;;;;;;12.65;100.00;102262.56;6280159;22;20314;-85
2023/10/05 04:24:52;;;;;;;10.55;2.90;;;;;;;12.63;100.00;102257.66;6281228;22;20019;-85
2023/10/05 04:27:18;;;;;;;9.90;2.33;;;;;;;12.62;100.00;102255.38;6280702;22;20016;-85
2023/10/05 04:29:46;;;;;;;7.10;2.75;;;;;;;12.60;100.00;102258.47;6280233;22;20071;-86
2023/10/05 04:32:15;;;;;;;6.22;2.47;;;;;;;12.59;100.00;102261.56;6280495;22;20024;-86
2023/10/05 04:34:42;;;;;;;8.02;2.53;;;;;;;12.59;100.00;102269.56;6252849;22;20103;-86
2023/10/05 04:37:09;;;;;;;9.98;2.75;;;;;;;12.58;100.00;102265.41;6280370;22;20016;-87
2023/10/05 04:39:36;;;;;;;8.35;2.60;;;;;;;12.57;100.00;102269.25;6280112;22;20016;-87
2023/10/05 04:42:14;;;;;;;12.95;2.85;;;;;;;12.55;100.00;102258.97;6280951;22;20016;-87
2023/10/05 04:44:41;;;;;;;14.30;2.72;;;;;;;12.53;100.00;102255.22;6278213;22;20016;-87
2023/10/05 04:47:11;;;;;;;4.43;2.58;;;;;;;12.52;100.00;102259.03;6278449;22;20028;-86
2023/10/05 04:49:38;;;;;;;12.82;2.95;;;;;;;12.52;100.00;102251.03;6280422;22;20464;-87
2023/10/05 04:52:06;;;;;;;7.97;3.10;;;;;;;12.50;100.00;102250.69;6281167;22;20020;-87
2023/10/05 04:54:38;;;;;;;5.47;2.78;;;;;;;12.48;100.00;102264.47;6278433;22;20027;-87
2023/10/05 04:57:12;;;;;;;8.90;3.42;;;;;;;12.48;100.00;102261.78;6280398;22;20020;-87
2023/10/05 04:59:48;;;;;;;8.63;3.08;;;;;;;12.46;100.00;102261.44;6278942;22;20042;-85
2023/10/05 05:02:21;;;;;;;12.60;3.72;;;;;;;12.47;100.00;102262.97;6280845;22;20075;-85
2023/10/05 05:07:21;;;;;;;4.72;2.60;;;;;;;12.44;100.00;102261.13;6280217;22;20470;-86
2023/10/05 05:09:50;;;;;;;6.03;3.05;;;;;;;12.43;100.00;102267.63;6280669;22;20012;-86
2023/10/05 05:12:17;;;;;;;7.10;2.58;;;;;;;12.41;100.00;102269.19;6278048;22;20891;-86
2023/10/05 05:14:46;;;;;;;11.40;3.10;;;;;;;12.40;100.00;102271.13;6278504;22;20016;-86
2023/10/05 05:17:15;;;;;;;6.35;2.70;;;;;;;12.38;100.00;102273.47;6278356;22;20020;-86
2023/10/05 05:19:42;;;;;;;4.80;2.72;;;;;;;12.38;100.00;102280.75;6280237;22;20016;-86
2023/10/05 05:22:09;;;;;;;6.82;2.80;;;;;;;12.37;100.00;102276.56;6279696;22;20012;-85
2023/10/05 05:24:37;;;;;;;5.40;2.95;;;;;;;12.35;100.00;102285.75;6280012;22;20426;-86
2023/10/05 05:27:17;;;;;;;9.27;3.38;;;;;;;12.35;100.00;102285.00;6278595;22;20017;-87
2023/10/05 05:29:46;;;;;;;8.60;3.58;;;;;;;12.36;100.00;102286.50;6282108;22;20016;-87
2023/10/05 05:32:13;;;;;;;6.15;2.97;;;;;;;12.34;100.00;102292.25;6280310;22;20017;-86
2023/10/05 05:34:41;;;;;;;4.93;3.00;;;;;;;12.33;100.00;102288.06;6254037;22;20462;-87
2023/10/05 05:37:13;;;;;;;8.07;3.30;;;;;;;12.34;100.00;102294.16;6254273;22;20028;-86
2023/10/05 05:39:40;;;;;;;5.53;3.40;;;;;;;12.34;100.00;102296.84;6280269;22;20071;-86
2023/10/05 05:42:12;;;;;;;8.35;3.35;;;;;;;12.34;100.00;102299.50;6281094;22;20087;-86
2023/10/05 05:44:40;;;;;;;4.18;2.78;;;;;;;12.34;100.00;102296.84;6281887;22;20012;-87
2023/10/05 05:47:14;;;;;;;11.73;3.85;;;;;;;12.33;100.00;102298.75;6280394;22;20023;-86
2023/10/05 05:49:41;;;;;;;7.10;2.95;;;;;;;12.33;100.00;102298.75;6280932;22;20019;-86
2023/10/05 05:52:14;;;;;;;11.93;3.65;;;;;;;12.33;100.00;102293.41;6279202;22;20468;-86
2023/10/05 05:54:42;;;;;;;4.25;3.03;;;;;;;12.32;100.00;102293.81;6280246;22;20017;-86
2023/10/05 05:57:12;;;;;;;4.80;2.85;;;;;;;12.31;100.00;102297.66;6280342;22;20495;-87
2023/10/05 05:59:39;;;;;;;7.15;3.08;;;;;;;12.33;100.00;102295.34;6281330;22;20059;-85
2023/10/05 06:02:07;;;;;;;5.32;2.80;;;;;;;12.33;100.00;102298.75;6280200;22;20070;-85
2023/10/05 06:04:41;;;;;;;7.82;3.15;;;;;;;12.35;100.00;102295.69;6281282;22;20039;-86
2023/10/05 06:07:11;;;;;;;11.23;3.25;;;;;;;12.36;100.00;102310.53;6279968;22;20055;-85
2023/10/05 06:09:43;;;;;;;8.18;3.08;;;;;;;12.37;100.00;102306.69;6279623;22;20507;-90
2023/10/05 06:12:12;;;;;;;6.27;3.40;;;;;;;12.38;100.00;102304.78;6282077;22;20020;-89
2023/10/05 06:14:40;;;;;;;15.80;3.60;;;;;;;12.40;100.00;102307.75;6282493;22;20659;-91
2023/10/05 06:17:07;;;;;;;4.93;2.97;;;;;;;12.43;100.00;102312.28;6281539;22;20026;-83
2023/10/05 06:19:36;;;;;;;6.68;3.40;;;;;;;12.42;100.00;102305.44;6279440;22;20026;-84
2023/10/05 06:22:05;;;;;;;6.75;2.95;;;;;;;12.44;100.00;102306.53;6281774;22;20083;-82
2023/10/05 06:24:35;;;;;;;7.13;3.33;;;;;;;12.45;100.00;102313.38;6279153;22;20476;-85
2023/10/05 06:27:02;;;;;;;12.98;2.78;;;;;;;12.48;100.00;102306.44;6254064;22;20052;-83
2023/10/05 06:29:29;;;;;;;4.93;2.65;;;;;;;12.49;100.00;102316.72;6281053;22;20012;-84
2023/10/05 06:31:56;;;;;;;6.65;3.03;;;;;;;12.51;100.00;102310.97;6280035;22;20099;-83
2023/10/05 06:34:22;;;;;;;5.00;2.60;;;;;;;12.53;100.00;102322.00;6281108;22;20039;-85
2023/10/05 06:36:51;;;;;;;7.10;2.90;;;;;;;12.55;100.00;102325.75;6283116;22;20023;-83
2023/10/05 06:39:18;;;;;;;3.50;2.55;;;;;;;12.59;100.00;102326.44;6282549;22;20823;-90
2023/10/05 06:41:53;;;;;;;5.43;2.92;;;;;;;12.62;100.00;102327.53;6288825;22;20068;-89
2023/10/05 06:44:23;;;;;;;10.27;2.95;;;;;;;12.66;100.00;102331.63;6281295;22;20111;-80
2023/10/05 06:46:50;;;;;;;7.05;3.05;;;;;;;12.69;100.00;102327.38;6281418;22;20100;-84
2023/10/05 06:49:17;;;;;;;7.95;2.78;;;;;;;12.72;100.00;102334.56;6280013;22;20091;-93
2023/10/05 06:51:45;;;;;;;11.07;3.38;;;;;;;12.76;100.00;102332.56;6284454;22;20023;-93
2023/10/05 06:54:15;;;;;;;8.38;3.00;;;;;;;12.79;100.00;102333.66;6285011;22;20019;-94
2023/10/05 06:56:48;;;;;;;9.90;3.55;;;;;;;12.83;100.00;102339.66;6289445;22;20800;-91
2023/10/05 06:59:15;;;;;;;9.93;3.13;;;;;;;12.87;100.00;102337.66;6289012;22;20019;-91
2023/10/05 07:01:42;;;;;;;11.90;2.58;;;;;;;12.91;100.00;102343.66;6291713;22;20032;-92
2023/10/05 07:04:09;;;;;;;8.43;2.97;;;;;;;12.93;100.00;102346.69;6291234;22;20028;-93
2023/10/05 07:06:35;;;;;;;8.75;3.03;;;;;;;12.96;100.00;102351.19;6291152;22;20083;-89
2023/10/05 07:09:02;;;;;;;12.48;2.90;;;;;;;13.01;100.00;102354.13;6281701;22;20016;-89
2023/10/05 07:11:30;;;;;;;10.27;3.00;;;;;;;13.05;100.00;102355.97;6286482;22;20060;-88
2023/10/05 07:13:57;;;;;;;13.02;3.08;;;;;;;13.07;100.00;102359.72;6285990;22;20012;-89
2023/10/05 07:16:24;;;;;;;7.43;3.20;;;;;;;13.10;100.00;102360.81;6285963;22;20099;-88
2023/10/05 07:18:51;;;;;;;4.05;2.60;;;;;;;13.14;100.00;102372.19;6283541;22;20504;-89
2023/10/05 07:21:18;;;;;;;11.20;2.97;;;;;;;13.15;100.00;102377.13;6283823;22;20430;-88
2023/10/05 07:23:44;;;;;;;8.07;3.30;;;;;;;13.18;100.00;102388.94;6281597;22;20004;-91
2023/10/05 07:26:11;;;;;;;8.40;3.47;;;;;;;13.22;100.00;102384.97;6284420;22;20733;-91
2023/10/05 07:28:39;;;;;;;4.93;2.65;;;;;;;13.27;100.00;102384.47;6282405;22;20020;-85
2023/10/05 07:31:06;;;;;;;7.55;2.97;;;;;;;13.33;100.00;102390.09;6284688;22;20024;-88
2023/10/05 07:33:33;;;;;;;5.88;2.70;;;;;;;13.36;100.00;102391.94;6281833;22;20012;-89
2023/10/05 07:36:02;;;;;;;10.38;3.22;;;;;;;13.41;100.00;102393.34;6284548;22;20023;-90
2023/10/05 07:38:29;;;;;;;4.93;2.75;;;;;;;13.44;100.00;102395.19;6283266;22;20016;-90
2023/10/05 07:40:56;;;;;;;14.85;3.50;;;;;;;13.47;100.00;102400.47;6284215;22;20043;-85
2023/10/05 07:43:23;;;;;;;10.15;3.40;;;;;;;13.55;100.00;102407.16;6305379;22;20020;-86
2023/10/05 07:45:50;;;;;;;12.25;3.40;;;;;;;13.58;100.00;102406.31;6254216;22;20020;-87
2023/10/05 07:48:16;;;;;;;11.93;3.15;;;;;;;13.63;100.00;102407.69;6280944;22;20016;-84
2023/10/05 07:50:44;;;;;;;9.65;3.20;;;;;;;13.67;100.00;102411.78;6280542;22;20012;-86
2023/10/05 07:53:10;;;;;;;10.52;3.25;;;;;;;13.73;100.00;102406.69;6278558;22;20016;-86
2023/10/05 07:55:37;;;;;;;6.28;2.55;;;;;;;13.77;100.00;102412.72;6280545;22;20020;-86
2023/10/05 07:58:05;;;;;;;9.68;3.20;;;;;;;13.86;100.00;102417.47;6279006;22;20016;-85
2023/10/05 08:00:35;;;;;;;10.18;3.30;;;;;;;13.89;100.00;102411.28;6280430;22;20046;-86
2023/10/05 08:03:03;;;;;;;8.10;3.40;;;;;;;13.95;100.00;102413.03;6280790;22;20016;-86
2023/10/05 08:05:30;;;;;;;10.55;2.92;;;;;;;14.05;100.00;102408.53;6279529;22;20021;-86
2023/10/05 08:07:58;;;;;;;11.48;3.00;;;;;;;14.10;100.00;102418.72;6280748;22;20022;-87
2023/10/05 08:10:24;;;;;;;8.38;3.00;;;;;;;14.22;100.00;102423.38;6280604;22;20028;-86
2023/10/05 08:12:53;;;;;;;9.10;3.30;;;;;;;14.31;100.00;102428.88;6279011;22;20020;-86
2023/10/05 08:15:19;;;;;;;9.15;3.03;;;;;;;14.42;100.00;102422.50;6277969;22;20021;-85
2023/10/05 08:17:48;;;;;;;8.48;3.10;;;;;;;14.53;100.00;102418.34;6280857;22;20012;-86
2023/10/05 08:20:17;;;;;;;7.47;2.67;;;;;;;14.61;100.00;102424.25;6277668;22;20469;-86
2023/10/05 08:22:50;;;;;;;6.15;3.17;;;;;;;14.71;100.00;102428.56;6278933;22;20027;-87
2023/10/05 08:25:16;;;;;;;9.00;3.15;;;;;;;14.76;100.00;102425.38;6278703;22;20781;-86
2023/10/05 08:27:43;;;;;;;5.28;2.72;;;;;;;14.82;100.00;102425.56;6279107;22;20091;-86
2023/10/05 08:30:11;;;;;;;7.60;2.55;;;;;;;14.83;100.00;102425.13;6280101;22;20047;-86
2023/10/05 08:32:39;;;;;;;10.75;3.08;;;;;;;14.83;100.00;102427.06;6280019;22;20046;-87
2023/10/05 08:35:12;;;;;;;11.50;3.15;;;;;;;14.89;99.94;102433.41;6279961;22;20016;-85
2023/10/05 08:37:43;;;;;;;6.93;3.00;;;;;;;14.91;99.65;102436.41;6280831;22;20023;-86
2023/10/05 08:43:08;;;;;;;10.95;3.30;;;;;;;14.99;99.50;102435.03;6281562;22;20012;-86
2023/10/05 08:45:51;;;;;;;7.78;3.00;;;;;;;15.09;99.62;102441.25;6280948;22;20016;-85
2023/10/05 08:48:40;;;;;;;9.48;3.13;;;;;;;15.19;99.09;102442.88;6279930;22;20083;-86
2023/10/05 08:51:12;;;;;;;8.15;3.00;;;;;;;15.26;98.58;102448.75;6278065;22;20055;-86
2023/10/05 08:53:48;;;;;;;10.77;3.38;;;;;;;15.39;99.33;102439.94;6278582;22;20027;-84
2023/10/05 08:56:16;;;;;;;7.22;2.95;;;;;;;15.42;97.91;102453.25;6253500;22;20031;-78
2023/10/05 08:58:45;;;;;;;3.90;2.58;;;;;;;15.40;97.59;102450.25;6280128;22;20040;-83
2023/10/05 09:01:23;;;;;;;10.93;3.33;;;;;;;15.42;97.08;102455.94;6278068;22;20023;-82
2023/10/05 09:03:54;;;;;;;10.15;2.97;;;;;;;15.47;97.05;102457.31;6251499;22;20066;-83
2023/10/05 09:06:21;;;;;;;9.38;2.70;;;;;;;15.51;97.20;102466.00;6277901;22;20095;-82
2023/10/05 09:08:53;;;;;;;3.55;2.50;;;;;;;15.52;97.49;102468.25;6281322;22;20490;-83
2023/10/05 09:11:29;;;;;;;6.22;2.53;;;;;;;15.54;97.31;102484.69;6281286;22;20438;-84
2023/10/05 09:14:12;;;;;;;10.02;2.67;;;;;;;15.53;96.36;102488.56;6280319;22;20016;-83
2023/10/05 09:16:43;;;;;;;5.78;2.83;;;;;;;15.51;96.57;102490.16;6278946;22;20013;-94
2023/10/05 09:19:17;;;;;;;;;;;;;;;15.53;97.09;102493.16;6281142;22;20016;-90
2023/10/05 09:21:50;;;;;;;14.32;2.30;;;;;;;15.53;96.34;102506.59;6281692;22;19927;-89
2023/10/05 09:24:21;;;;;;;5.55;2.65;;;;;;;15.52;96.09;102502.41;6280674;22;20012;-82
2023/10/05 09:26:56;;;;;;;5.38;2.40;;;;;;;15.54;96.91;102506.16;6280849;22;20135;-87
2023/10/05 09:29:22;;;;;;;8.52;2.40;;;;;;;15.56;96.59;102513.78;6283328;22;20015;-90
2023/10/05 09:31:54;;;;;;;6.35;2.42;;;;;;;15.53;96.32;102506.59;6283566;22;20020;-88
2023/10/05 09:34:36;;;;;;;5.97;2.13;;;;;;;15.50;96.89;102505.50;6283370;22;20020;-84
2023/10/05 09:37:05;;;;;;;11.43;2.85;;;;;;;15.49;96.59;102508.63;6279110;22;20024;-81
2023/10/05 09:39:54;;;;;;;9.55;2.55;;;;;;;15.54;96.39;102506.16;6279436;22;20461;-92
2023/10/05 09:42:25;;;;;;;7.88;2.60;;;;;;;15.61;96.74;102503.25;6279675;22;20747;-88
2023/10/05 09:44:57;;;;;;;14.80;3.00;;;;;;;15.66;96.12;102497.34;6280332;22;20017;-88
2023/10/05 09:47:25;;;;;;;4.50;1.98;;;;;;;15.75;96.06;102495.94;6277530;22;20020;-89
2023/10/05 09:49:58;;;;;;;7.63;2.33;;;;;;;15.83;95.49;102491.84;6279441;22;20016;-87
2023/10/05 09:52:31;;;;;;;6.75;2.20;;;;;;;15.88;94.45;102496.69;6279615;22;20016;-87
2023/10/05 09:54:59;;;;;;;8.32;2.50;;;;;;;15.97;93.96;102496.75;6280220;22;20016;-84
2023/10/05 09:57:26;;;;;;;6.75;1.88;;;;;;;16.07;93.79;102494.88;6279533;22;20020;-84
2023/10/05 09:59:57;;;;;;;4.43;1.73;;;;;;;16.12;93.16;102491.66;6280211;22;20454;-86
2023/10/05 10:02:33;;;;;;;8.00;2.50;;;;;;;16.12;92.70;102492.41;6277593;22;20107;-86
2023/10/05 10:05:23;;;;;;;8.63;2.58;;;;;;;16.15;92.21;102498.84;6252949;22;20028;-90
2023/10/05 10:07:50;;;;;;;7.68;2.17;;;;;;;16.15;92.03;102496.16;6280273;22;20020;-82
2023/10/05 10:10:19;;;;;;;4.53;1.60;;;;;;;16.16;91.21;102497.66;6253074;22;20087;-83
2023/10/05 10:12:46;;;;;;;8.35;2.30;;;;;;;16.19;91.17;102491.41;6253338;22;20395;-85
2023/10/05 10:15:33;;;;;;;6.40;2.00;;;;;;;16.27;91.54;102498.81;6280363;22;20431;-88
2023/10/05 10:18:06;;;;;;;5.32;2.17;;;;;;;16.33;91.35;102497.06;6279976;22;20020;-87
2023/10/05 10:20:36;;;;;;;6.38;2.15;;;;;;;16.38;90.27;102503.06;6282659;22;20016;-86
2023/10/05 10:23:21;;;;;;;9.23;2.00;;;;;;;16.43;89.79;102505.16;6282493;22;20043;-88
2023/10/05 10:25:52;;;;;;;8.35;2.42;;;;;;;16.50;89.23;102497.59;6282990;22;20008;-87
2023/10/05 10:31:17;;;;;;;8.73;2.13;;;;;;;16.73;89.39;102501.81;6279072;22;20091;-84
2023/10/05 10:33:51;;;;;;;7.45;2.10;;;;;;;16.82;89.34;102504.53;6279867;22;20027;-90
2023/10/05 10:36:41;;;;;;;13.85;2.50;;;;;;;16.94;87.48;102509.09;6279538;22;20019;-82
2023/10/05 10:39:23;;;;;;;10.25;2.22;;;;;;;17.04;87.90;102496.44;6281267;22;20100;-86
2023/10/05 10:42:09;;;;;;;6.50;2.70;;;;;;;17.19;87.04;102502.06;6281474;22;20018;-82
2023/10/05 10:47:17;;;;;;;7.43;2.22;;;;;;;17.24;85.90;102496.06;6280535;22;20012;-79
2023/10/05 10:50:15;;;;;;;8.57;2.70;;;;;;;17.38;85.83;102497.47;6280849;22;20020;-80
2023/10/05 10:52:43;;;;;;;7.78;2.90;;;;;;;17.50;83.70;102496.59;6280770;22;20047;-82
2023/10/05 10:55:14;;;;;;;9.13;2.30;;;;;;;17.63;84.39;102499.91;6280812;22;20095;-83
2023/10/05 10:57:45;;;;;;;8.35;2.40;;;;;;;17.70;83.34;102512.38;6281137;22;20016;-83
2023/10/05 11:00:44;;;;;;;5.85;2.10;;;;;;;17.76;83.95;102505.94;6279987;22;20019;-81
2023/10/05 11:03:12;;;;;;;13.07;2.65;;;;;;;17.85;82.96;102510.59;6281239;22;20016;-82
2023/10/05 11:05:39;;;;;;;5.20;2.20;;;;;;;17.92;82.31;102516.47;6280777;22;20012;-80
2023/10/05 11:08:13;;;;;;;7.47;2.75;;;;;;;17.95;82.64;102509.44;6280797;22;20019;-86
2023/10/05 11:10:43;;;;;;;7.78;2.47;;;;;;;17.90;80.98;102510.03;6280563;22;20434;-82
2023/10/05 11:13:19;;;;;;;7.95;2.58;;;;;;;17.86;82.00;102506.72;6280867;22;20340;-79
2023/10/05 11:15:57;;;;;;;6.15;2.25;;;;;;;17.84;80.16;102503.72;6280851;22;20048;-83
2023/10/05 11:18:30;;;;;;;9.18;2.65;;;;;;;17.83;81.38;102510.31;6278695;22;20383;-90
2023/10/05 11:21:23;;;;;;;5.65;2.08;;;;;;;17.88;82.14;102501.63;6279460;22;20017;-87
2023/10/05 11:23:58;;;;;;;9.10;2.97;;;;;;;17.80;81.64;102503.88;6282148;22;20607;-91
2023/10/05 11:26:35;;;;;;;6.65;2.47;;;;;;;17.76;81.12;102500.56;6278905;22;20435;-83
2023/10/05 11:29:21;;;;;;;13.90;2.53;;;;;;;17.72;82.68;102501.91;6279735;22;20091;-83
2023/10/05 11:31:51;;;;;;;5.30;2.30;;;;;;;17.67;82.49;102506.69;6279024;22;20125;-83
2023/10/05 11:34:39;;;;;;;7.78;2.63;;;;;;;17.61;82.97;102508.44;6280481;22;20022;-83
2023/10/05 11:37:26;;;;;;;13.68;3.13;;;;;;;17.56;83.65;102497.53;6280609;22;20655;-83
2023/10/05 11:40:00;;;;;;;8.70;2.35;;;;;;;17.59;82.74;102505.44;6280954;22;20016;-84
2023/10/05 11:42:35;;;;;;;5.65;2.58;;;;;;;17.63;83.16;102506.03;6253367;22;20450;-83
2023/10/05 11:45:12;;;;;;;10.77;2.97;;;;;;;17.67;81.88;102511.31;6278852;22;20421;-83
2023/10/05 11:47:45;;;;;;;7.80;2.58;;;;;;;17.70;82.69;102510.44;6279283;22;20571;-84
2023/10/05 11:50:24;;;;;;;7.32;2.40;;;;;;;17.88;82.63;102509.72;6278867;22;20569;-84
2023/10/05 11:52:52;;;;;;;7.53;2.38;;;;;;;17.87;81.14;102514.34;6279485;22;20115;-84
2023/10/05 11:55:19;;;;;;;7.05;2.67;;;;;;;17.81;81.68;102507.31;6280583;22;20012;-84
2023/10/05 11:57:47;;;;;;;7.43;2.40;;;;;;;17.77;81.69;102507.44;6280691;22;20500;-84
2023/10/05 12:00:15;;;;;;;10.88;2.38;;;;;;;17.78;80.95;102505.50;6278668;22;20040;-84
2023/10/05 12:02:43;;;;;;;7.82;2.40;;;;;;;17.81;82.39;102513.44;6279121;22;20016;-84
2023/10/05 12:05:11;;;;;;;8.98;2.45;;;;;;;17.89;82.35;102503.88;6280655;22;20087;-84
2023/10/05 12:07:41;;;;;;;7.00;2.30;;;;;;;17.94;81.39;102502.53;6279102;22;20079;-84